sensor_id;sensor_type;location;lat;lon;timestamp;P1;durP1;ratioP1;P2;durP2;ratioP2
51618;SDS011;38518;53.164;5.430;2023-10-13T00:02:11;82.75;;;42.47;;
51618;SDS011;38518;53.164;5.430;2023-10-13T00:04:39;127.22;;;50.30;;
51618;SDS011;38518;53.164;5.430;2023-10-13T00:07:04;109.50;;;47.67;;
51618;SDS011;38518;53.164;5.430;2023-10-13T00:09:34;107.15;;;47.60;;
51618;SDS011;38518;53.164;5.430;2023-10-13T00:12:03;106.95;;;47.63;;
51618;SDS011;38518;53.164;5.430;2023-10-13T00:14:30;93.28;;;43.92;;
51618;SDS011;38518;53.164;5.430;2023-10-13T00:16:59;96.32;;;44.42;;
51618;SDS011;38518;53.164;5.430;2023-10-13T00:19:35;91.55;;;40.08;;
51618;SDS011;38518;53.164;5.430;2023-10-13T00:22:12;96.55;;;40.45;;
51618;SDS011;38518;53.164;5.430;2023-10-13T00:24:42;86.68;;;38.40;;
51618;SDS011;38518;53.164;5.430;2023-10-13T00:27:18;87.53;;;38.35;;
51618;SDS011;38518;53.164;5.430;2023-10-13T00:30:11;83.05;;;38.42;;
51618;SDS011;38518;53.164;5.430;2023-10-13T00:32:58;83.90;;;38.80;;
51618;SDS011;38518;53.164;5.430;2023-10-13T00:35:28;83.35;;;39.15;;
51618;SDS011;38518;53.164;5.430;2023-10-13T00:38:00;75.22;;;36.90;;
51618;SDS011;38518;53.164;5.430;2023-10-13T00:40:38;74.30;;;35.20;;
51618;SDS011;38518;53.164;5.430;2023-10-13T00:43:05;59.05;;;30.67;;
51618;SDS011;38518;53.164;5.430;2023-10-13T00:48:28;30.67;;;17.02;;
51618;SDS011;38518;53.164;5.430;2023-10-13T00:50:59;18.30;;;12.45;;
51618;SDS011;38518;53.164;5.430;2023-10-13T00:53:32;17.85;;;11.98;;
51618;SDS011;38518;53.164;5.430;2023-10-13T00:56:01;19.13;;;11.38;;
51618;SDS011;38518;53.164;5.430;2023-10-13T00:58:43;18.23;;;9.97;;
51618;SDS011;38518;53.164;5.430;2023-10-13T01:01:09;18.27;;;11.00;;
51618;SDS011;38518;53.164;5.430;2023-10-13T01:03:50;22.45;;;12.75;;
51618;SDS011;38518;53.164;5.430;2023-10-13T01:06:21;20.45;;;11.23;;
51618;SDS011;38518;53.164;5.430;2023-10-13T01:09:03;22.85;;;10.68;;
51618;SDS011;38518;53.164;5.430;2023-10-13T01:11:39;16.88;;;10.45;;
51618;SDS011;38518;53.164;5.430;2023-10-13T01:14:07;14.73;;;8.55;;
51618;SDS011;38518;53.164;5.430;2023-10-13T01:16:36;17.65;;;10.80;;
51618;SDS011;38518;53.164;5.430;2023-10-13T01:19:11;16.20;;;10.35;;
51618;SDS011;38518;53.164;5.430;2023-10-13T01:21:44;19.58;;;11.55;;
51618;SDS011;38518;53.164;5.430;2023-10-13T01:24:13;15.32;;;9.77;;
51618;SDS011;38518;53.164;5.430;2023-10-13T01:26:44;13.63;;;8.80;;
51618;SDS011;38518;53.164;5.430;2023-10-13T01:29:10;13.40;;;7.10;;
51618;SDS011;38518;53.164;5.430;2023-10-13T01:31:42;12.05;;;5.80;;
51618;SDS011;38518;53.164;5.430;2023-10-13T01:34:13;11.27;;;5.30;;
51618;SDS011;38518;53.164;5.430;2023-10-13T01:36:56;10.00;;;4.72;;
51618;SDS011;38518;53.164;5.430;2023-10-13T01:39:29;16.85;;;6.63;;
51618;SDS011;38518;53.164;5.430;2023-10-13T01:41:58;14.50;;;6.05;;
51618;SDS011;38518;53.164;5.430;2023-10-13T01:44:24;12.48;;;5.82;;
51618;SDS011;38518;53.164;5.430;2023-10-13T01:46:59;12.80;;;5.68;;
51618;SDS011;38518;53.164;5.430;2023-10-13T01:49:31;11.27;;;5.32;;
51618;SDS011;38518;53.164;5.430;2023-10-13T01:52:10;14.57;;;5.65;;
51618;SDS011;38518;53.164;5.430;2023-10-13T01:54:40;15.75;;;5.55;;
51618;SDS011;38518;53.164;5.430;2023-10-13T01:57:06;11.95;;;5.22;;
51618;SDS011;38518;53.164;5.430;2023-10-13T01:59:32;8.25;;;4.95;;
51618;SDS011;38518;53.164;5.430;2023-10-13T02:01:58;8.98;;;5.15;;
51618;SDS011;38518;53.164;5.430;2023-10-13T02:04:27;12.65;;;5.95;;
51618;SDS011;38518;53.164;5.430;2023-10-13T02:06:52;12.05;;;5.75;;
51618;SDS011;38518;53.164;5.430;2023-10-13T02:09:18;11.52;;;5.63;;
51618;SDS011;38518;53.164;5.430;2023-10-13T02:11:54;14.48;;;6.63;;
51618;SDS011;38518;53.164;5.430;2023-10-13T02:14:23;9.52;;;5.82;;
51618;SDS011;38518;53.164;5.430;2023-10-13T02:16:51;11.73;;;6.10;;
51618;SDS011;38518;53.164;5.430;2023-10-13T02:19:37;14.55;;;7.05;;
51618;SDS011;38518;53.164;5.430;2023-10-13T02:22:05;14.27;;;7.22;;
51618;SDS011;38518;53.164;5.430;2023-10-13T02:24:35;13.00;;;7.50;;
51618;SDS011;38518;53.164;5.430;2023-10-13T02:27:05;14.90;;;7.93;;
51618;SDS011;38518;53.164;5.430;2023-10-13T02:29:39;12.25;;;7.40;;
51618;SDS011;38518;53.164;5.430;2023-10-13T02:32:05;15.18;;;8.13;;
51618;SDS011;38518;53.164;5.430;2023-10-13T02:34:38;15.88;;;9.20;;
51618;SDS011;38518;53.164;5.430;2023-10-13T02:37:09;21.05;;;9.70;;
51618;SDS011;38518;53.164;5.430;2023-10-13T02:39:35;21.92;;;11.10;;
51618;SDS011;38518;53.164;5.430;2023-10-13T02:42:03;15.57;;;11.55;;
51618;SDS011;38518;53.164;5.430;2023-10-13T02:44:32;22.95;;;11.43;;
51618;SDS011;38518;53.164;5.430;2023-10-13T02:47:01;18.73;;;12.60;;
51618;SDS011;38518;53.164;5.430;2023-10-13T02:49:31;19.75;;;13.73;;
51618;SDS011;38518;53.164;5.430;2023-10-13T02:51:59;20.70;;;12.77;;
51618;SDS011;38518;53.164;5.430;2023-10-13T02:54:30;23.58;;;14.63;;
51618;SDS011;38518;53.164;5.430;2023-10-13T02:56:56;22.52;;;15.73;;
51618;SDS011;38518;53.164;5.430;2023-10-13T02:59:23;20.83;;;15.23;;
51618;SDS011;38518;53.164;5.430;2023-10-13T03:02:08;22.63;;;14.48;;
51618;SDS011;38518;53.164;5.430;2023-10-13T03:04:52;21.92;;;14.73;;
51618;SDS011;38518;53.164;5.430;2023-10-13T03:07:27;23.58;;;15.32;;
51618;SDS011;38518;53.164;5.430;2023-10-13T03:09:57;23.15;;;15.45;;
51618;SDS011;38518;53.164;5.430;2023-10-13T03:12:25;21.13;;;15.07;;
51618;SDS011;38518;53.164;5.430;2023-10-13T03:14:58;22.17;;;15.23;;
51618;SDS011;38518;53.164;5.430;2023-10-13T03:17:42;22.73;;;14.77;;
51618;SDS011;38518;53.164;5.430;2023-10-13T03:20:09;23.73;;;15.75;;
51618;SDS011;38518;53.164;5.430;2023-10-13T03:22:40;24.90;;;16.67;;
51618;SDS011;38518;53.164;5.430;2023-10-13T03:25:10;31.95;;;19.30;;
51618;SDS011;38518;53.164;5.430;2023-10-13T03:27:55;32.83;;;21.43;;
51618;SDS011;38518;53.164;5.430;2023-10-13T03:30:21;37.47;;;22.70;;
51618;SDS011;38518;53.164;5.430;2023-10-13T03:32:55;41.65;;;24.65;;
51618;SDS011;38518;53.164;5.430;2023-10-13T03:35:21;38.95;;;25.60;;
51618;SDS011;38518;53.164;5.430;2023-10-13T03:37:54;53.75;;;27.80;;
51618;SDS011;38518;53.164;5.430;2023-10-13T03:40:21;51.53;;;28.50;;
51618;SDS011;38518;53.164;5.430;2023-10-13T03:42:47;52.20;;;29.08;;
51618;SDS011;38518;53.164;5.430;2023-10-13T03:45:23;47.20;;;28.00;;
51618;SDS011;38518;53.164;5.430;2023-10-13T03:47:50;49.25;;;27.45;;
51618;SDS011;38518;53.164;5.430;2023-10-13T03:50:17;50.65;;;27.58;;
51618;SDS011;38518;53.164;5.430;2023-10-13T03:52:54;45.25;;;26.70;;
51618;SDS011;38518;53.164;5.430;2023-10-13T03:55:25;50.17;;;26.63;;
51618;SDS011;38518;53.164;5.430;2023-10-13T03:57:55;55.90;;;28.83;;
51618;SDS011;38518;53.164;5.430;2023-10-13T04:00:24;57.75;;;28.25;;
51618;SDS011;38518;53.164;5.430;2023-10-13T04:02:51;52.83;;;27.83;;
51618;SDS011;38518;53.164;5.430;2023-10-13T04:05:38;52.47;;;25.88;;
51618;SDS011;38518;53.164;5.430;2023-10-13T04:08:10;44.60;;;23.00;;
51618;SDS011;38518;53.164;5.430;2023-10-13T04:10:54;43.60;;;23.73;;
51618;SDS011;38518;53.164;5.430;2023-10-13T04:13:21;41.45;;;22.20;;
51618;SDS011;38518;53.164;5.430;2023-10-13T04:16:07;45.33;;;22.88;;
51618;SDS011;38518;53.164;5.430;2023-10-13T04:18:51;43.17;;;23.67;;
51618;SDS011;38518;53.164;5.430;2023-10-13T04:21:21;49.08;;;24.10;;
51618;SDS011;38518;53.164;5.430;2023-10-13T04:24:11;48.75;;;24.52;;
51618;SDS011;38518;53.164;5.430;2023-10-13T04:26:52;48.00;;;24.40;;
51618;SDS011;38518;53.164;5.430;2023-10-13T04:29:44;54.80;;;24.23;;
51618;SDS011;38518;53.164;5.430;2023-10-13T04:32:21;46.53;;;22.50;;
51618;SDS011;38518;53.164;5.430;2023-10-13T04:35:04;40.22;;;20.17;;
51618;SDS011;38518;53.164;5.430;2023-10-13T04:37:39;43.03;;;18.38;;
51618;SDS011;38518;53.164;5.430;2023-10-13T04:40:23;21.13;;;11.18;;
51618;SDS011;38518;53.164;5.430;2023-10-13T04:42:52;26.73;;;13.02;;
51618;SDS011;38518;53.164;5.430;2023-10-13T04:45:22;16.70;;;9.95;;
51618;SDS011;38518;53.164;5.430;2023-10-13T04:47:58;26.75;;;11.90;;
51618;SDS011;38518;53.164;5.430;2023-10-13T04:50:58;24.65;;;12.77;;
51618;SDS011;38518;53.164;5.430;2023-10-13T04:53:45;29.83;;;14.35;;
51618;SDS011;38518;53.164;5.430;2023-10-13T04:56:37;37.67;;;17.50;;
51618;SDS011;38518;53.164;5.430;2023-10-13T04:59:05;29.13;;;15.23;;
51618;SDS011;38518;53.164;5.430;2023-10-13T05:01:43;34.65;;;17.77;;
51618;SDS011;38518;53.164;5.430;2023-10-13T05:04:27;36.03;;;21.30;;
51618;SDS011;38518;53.164;5.430;2023-10-13T05:07:25;35.75;;;20.38;;
51618;SDS011;38518;53.164;5.430;2023-10-13T05:10:09;35.47;;;20.55;;
51618;SDS011;38518;53.164;5.430;2023-10-13T05:12:53;36.75;;;21.77;;
51618;SDS011;38518;53.164;5.430;2023-10-13T05:15:44;40.33;;;20.35;;
51618;SDS011;38518;53.164;5.430;2023-10-13T05:18:30;46.42;;;22.40;;
51618;SDS011;38518;53.164;5.430;2023-10-13T05:21:15;28.33;;;16.75;;
51618;SDS011;38518;53.164;5.430;2023-10-13T05:24:00;31.50;;;17.95;;
51618;SDS011;38518;53.164;5.430;2023-10-13T05:26:44;25.00;;;15.30;;
51618;SDS011;38518;53.164;5.430;2023-10-13T05:29:28;39.42;;;17.65;;
51618;SDS011;38518;53.164;5.430;2023-10-13T05:32:12;18.80;;;12.73;;
51618;SDS011;38518;53.164;5.430;2023-10-13T05:34:56;21.10;;;12.15;;
51618;SDS011;38518;53.164;5.430;2023-10-13T05:37:41;25.00;;;14.70;;
51618;SDS011;38518;53.164;5.430;2023-10-13T05:40:27;25.92;;;15.30;;
51618;SDS011;38518;53.164;5.430;2023-10-13T05:43:11;18.67;;;12.85;;
51618;SDS011;38518;53.164;5.430;2023-10-13T05:46:00;20.55;;;13.10;;
51618;SDS011;38518;53.164;5.430;2023-10-13T05:49:01;24.93;;;15.70;;
51618;SDS011;38518;53.164;5.430;2023-10-13T05:51:37;31.48;;;17.33;;
51618;SDS011;38518;53.164;5.430;2023-10-13T05:54:03;24.65;;;14.38;;
51618;SDS011;38518;53.164;5.430;2023-10-13T05:56:48;17.67;;;11.60;;
51618;SDS011;38518;53.164;5.430;2023-10-13T05:59:37;20.25;;;10.52;;
51618;SDS011;38518;53.164;5.430;2023-10-13T06:02:22;11.85;;;8.18;;
51618;SDS011;38518;53.164;5.430;2023-10-13T06:05:10;10.82;;;8.40;;
51618;SDS011;38518;53.164;5.430;2023-10-13T06:07:56;12.13;;;7.30;;
51618;SDS011;38518;53.164;5.430;2023-10-13T06:10:41;11.80;;;8.80;;
51618;SDS011;38518;53.164;5.430;2023-10-13T06:13:26;11.88;;;8.07;;
51618;SDS011;38518;53.164;5.430;2023-10-13T06:16:15;10.20;;;6.22;;
51618;SDS011;38518;53.164;5.430;2023-10-13T06:19:01;17.25;;;7.25;;
51618;SDS011;38518;53.164;5.430;2023-10-13T06:21:59;26.30;;;7.32;;
51618;SDS011;38518;53.164;5.430;2023-10-13T06:24:43;46.90;;;11.48;;
51618;SDS011;38518;53.164;5.430;2023-10-13T06:27:28;39.90;;;10.87;;
51618;SDS011;38518;53.164;5.430;2023-10-13T06:30:12;34.92;;;10.43;;
51618;SDS011;38518;53.164;5.430;2023-10-13T06:32:38;53.17;;;12.55;;
51618;SDS011;38518;53.164;5.430;2023-10-13T06:35:05;41.70;;;10.77;;
51618;SDS011;38518;53.164;5.430;2023-10-13T06:37:44;49.67;;;12.88;;
51618;SDS011;38518;53.164;5.430;2023-10-13T06:40:10;68.60;;;13.95;;
51618;SDS011;38518;53.164;5.430;2023-10-13T06:42:58;46.67;;;11.68;;
51618;SDS011;38518;53.164;5.430;2023-10-13T06:45:38;39.78;;;9.07;;
51618;SDS011;38518;53.164;5.430;2023-10-13T06:48:04;38.63;;;9.80;;
51618;SDS011;38518;53.164;5.430;2023-10-13T06:50:31;46.60;;;11.90;;
51618;SDS011;38518;53.164;5.430;2023-10-13T06:53:04;54.90;;;12.02;;
51618;SDS011;38518;53.164;5.430;2023-10-13T06:55:30;43.25;;;11.38;;
51618;SDS011;38518;53.164;5.430;2023-10-13T06:58:03;41.17;;;12.57;;
51618;SDS011;38518;53.164;5.430;2023-10-13T07:00:31;40.35;;;11.13;;
51618;SDS011;38518;53.164;5.430;2023-10-13T07:03:04;40.88;;;12.02;;
51618;SDS011;38518;53.164;5.430;2023-10-13T07:05:42;41.00;;;12.55;;
51618;SDS011;38518;53.164;5.430;2023-10-13T07:08:09;49.75;;;11.57;;
51618;SDS011;38518;53.164;5.430;2023-10-13T07:10:46;31.88;;;10.55;;
51618;SDS011;38518;53.164;5.430;2023-10-13T07:13:38;28.67;;;9.57;;
51618;SDS011;38518;53.164;5.430;2023-10-13T07:16:05;35.72;;;11.45;;
51618;SDS011;38518;53.164;5.430;2023-10-13T07:18:32;41.85;;;12.38;;
51618;SDS011;38518;53.164;5.430;2023-10-13T07:21:04;38.50;;;10.75;;
51618;SDS011;38518;53.164;5.430;2023-10-13T07:23:36;49.17;;;12.55;;
51618;SDS011;38518;53.164;5.430;2023-10-13T07:26:02;34.20;;;11.45;;
51618;SDS011;38518;53.164;5.430;2023-10-13T07:28:31;34.95;;;12.43;;
51618;SDS011;38518;53.164;5.430;2023-10-13T07:31:03;45.53;;;14.10;;
51618;SDS011;38518;53.164;5.430;2023-10-13T07:33:29;39.28;;;12.85;;
51618;SDS011;38518;53.164;5.430;2023-10-13T07:36:00;33.40;;;12.45;;
51618;SDS011;38518;53.164;5.430;2023-10-13T07:38:53;31.23;;;10.82;;
51618;SDS011;38518;53.164;5.430;2023-10-13T07:41:48;28.88;;;12.30;;
51618;SDS011;38518;53.164;5.430;2023-10-13T07:44:19;31.15;;;12.45;;
51618;SDS011;38518;53.164;5.430;2023-10-13T07:46:57;33.15;;;13.15;;
51618;SDS011;38518;53.164;5.430;2023-10-13T07:49:29;30.10;;;12.35;;
51618;SDS011;38518;53.164;5.430;2023-10-13T07:51:59;28.75;;;11.43;;
51618;SDS011;38518;53.164;5.430;2023-10-13T07:54:43;35.95;;;12.32;;
51618;SDS011;38518;53.164;5.430;2023-10-13T07:57:12;40.97;;;13.30;;
51618;SDS011;38518;53.164;5.430;2023-10-13T07:59:40;39.95;;;13.27;;
51618;SDS011;38518;53.164;5.430;2023-10-13T08:02:14;36.05;;;12.93;;
51618;SDS011;38518;53.164;5.430;2023-10-13T08:07:24;32.00;;;12.32;;
51618;SDS011;38518;53.164;5.430;2023-10-13T08:09:53;32.58;;;12.75;;
51618;SDS011;38518;53.164;5.430;2023-10-13T08:12:22;27.60;;;11.52;;
51618;SDS011;38518;53.164;5.430;2023-10-13T08:14:54;28.42;;;12.00;;
51618;SDS011;38518;53.164;5.430;2023-10-13T08:17:37;27.15;;;11.68;;
51618;SDS011;38518;53.164;5.430;2023-10-13T08:20:03;25.73;;;11.05;;
51618;SDS011;38518;53.164;5.430;2023-10-13T08:22:37;19.98;;;9.85;;
51618;SDS011;38518;53.164;5.430;2023-10-13T08:25:04;22.20;;;11.30;;
51618;SDS011;38518;53.164;5.430;2023-10-13T08:27:48;18.55;;;10.00;;
51618;SDS011;38518;53.164;5.430;2023-10-13T08:30:15;21.27;;;11.32;;
51618;SDS011;38518;53.164;5.430;2023-10-13T08:33:07;20.38;;;10.82;;
51618;SDS011;38518;53.164;5.430;2023-10-13T08:35:43;15.07;;;9.50;;
51618;SDS011;38518;53.164;5.430;2023-10-13T08:38:38;17.80;;;10.35;;
51618;SDS011;38518;53.164;5.430;2023-10-13T08:41:21;17.05;;;8.93;;
51618;SDS011;38518;53.164;5.430;2023-10-13T08:43:47;18.60;;;10.48;;
51618;SDS011;38518;53.164;5.430;2023-10-13T08:46:16;13.82;;;9.63;;
51618;SDS011;38518;53.164;5.430;2023-10-13T08:48:58;20.77;;;12.52;;
51618;SDS011;38518;53.164;5.430;2023-10-13T08:51:52;19.95;;;12.77;;
51618;SDS011;38518;53.164;5.430;2023-10-13T08:54:35;15.95;;;10.73;;
51618;SDS011;38518;53.164;5.430;2023-10-13T08:57:04;19.60;;;11.80;;
51618;SDS011;38518;53.164;5.430;2023-10-13T08:59:50;17.70;;;11.57;;
51618;SDS011;38518;53.164;5.430;2023-10-13T09:02:23;16.65;;;13.15;;
51618;SDS011;38518;53.164;5.430;2023-10-13T09:05:09;23.05;;;13.70;;
51618;SDS011;38518;53.164;5.430;2023-10-13T09:07:55;18.90;;;12.93;;
51618;SDS011;38518;53.164;5.430;2023-10-13T09:10:24;22.75;;;13.70;;
51618;SDS011;38518;53.164;5.430;2023-10-13T09:12:58;17.30;;;11.93;;
51618;SDS011;38518;53.164;5.430;2023-10-13T09:15:28;18.50;;;11.95;;
51618;SDS011;38518;53.164;5.430;2023-10-13T09:18:25;17.05;;;13.13;;
51618;SDS011;38518;53.164;5.430;2023-10-13T09:21:08;17.98;;;11.70;;
51618;SDS011;38518;53.164;5.430;2023-10-13T09:23:59;17.45;;;11.77;;
51618;SDS011;38518;53.164;5.430;2023-10-13T09:27:03;18.02;;;11.48;;
51618;SDS011;38518;53.164;5.430;2023-10-13T09:29:30;14.82;;;11.75;;
51618;SDS011;38518;53.164;5.430;2023-10-13T09:32:04;15.73;;;11.50;;
51618;SDS011;38518;53.164;5.430;2023-10-13T09:34:30;17.20;;;11.30;;
51618;SDS011;38518;53.164;5.430;2023-10-13T09:36:59;15.05;;;10.80;;
51618;SDS011;38518;53.164;5.430;2023-10-13T09:39:28;17.45;;;10.63;;
51618;SDS011;38518;53.164;5.430;2023-10-13T09:42:18;17.92;;;10.73;;
51618;SDS011;38518;53.164;5.430;2023-10-13T09:44:44;19.48;;;10.45;;
51618;SDS011;38518;53.164;5.430;2023-10-13T09:47:17;19.58;;;10.65;;
51618;SDS011;38518;53.164;5.430;2023-10-13T09:49:55;16.10;;;10.15;;
51618;SDS011;38518;53.164;5.430;2023-10-13T09:52:28;19.80;;;9.50;;
51618;SDS011;38518;53.164;5.430;2023-10-13T09:54:58;16.85;;;9.43;;
51618;SDS011;38518;53.164;5.430;2023-10-13T09:57:38;14.52;;;8.70;;
51618;SDS011;38518;53.164;5.430;2023-10-13T10:00:14;16.35;;;9.70;;
51618;SDS011;38518;53.164;5.430;2023-10-13T10:03:01;14.55;;;9.25;;
51618;SDS011;38518;53.164;5.430;2023-10-13T10:05:41;15.35;;;8.35;;
51618;SDS011;38518;53.164;5.430;2023-10-13T10:08:22;15.47;;;7.67;;
51618;SDS011;38518;53.164;5.430;2023-10-13T10:11:00;20.02;;;9.00;;
51618;SDS011;38518;53.164;5.430;2023-10-13T10:13:43;16.95;;;8.27;;
51618;SDS011;38518;53.164;5.430;2023-10-13T10:16:28;19.48;;;8.77;;
51618;SDS011;38518;53.164;5.430;2023-10-13T10:19:11;15.88;;;9.00;;
51618;SDS011;38518;53.164;5.430;2023-10-13T10:21:38;15.90;;;8.27;;
51618;SDS011;38518;53.164;5.430;2023-10-13T10:24:20;17.15;;;7.57;;
51618;SDS011;38518;53.164;5.430;2023-10-13T10:26:55;24.35;;;8.18;;
51618;SDS011;38518;53.164;5.430;2023-10-13T10:29:21;21.17;;;8.93;;
51618;SDS011;38518;53.164;5.430;2023-10-13T10:31:47;17.75;;;7.78;;
51618;SDS011;38518;53.164;5.430;2023-10-13T10:34:14;15.70;;;7.88;;
51618;SDS011;38518;53.164;5.430;2023-10-13T10:36:46;16.55;;;7.70;;
51618;SDS011;38518;53.164;5.430;2023-10-13T10:39:12;18.48;;;7.57;;
51618;SDS011;38518;53.164;5.430;2023-10-13T10:41:40;17.48;;;7.30;;
51618;SDS011;38518;53.164;5.430;2023-10-13T10:44:12;17.63;;;6.85;;
51618;SDS011;38518;53.164;5.430;2023-10-13T10:46:44;19.15;;;8.07;;
51618;SDS011;38518;53.164;5.430;2023-10-13T10:49:26;19.97;;;7.73;;
51618;SDS011;38518;53.164;5.430;2023-10-13T10:51:59;14.60;;;6.95;;
51618;SDS011;38518;53.164;5.430;2023-10-13T10:54:29;17.98;;;7.50;;
51618;SDS011;38518;53.164;5.430;2023-10-13T10:56:59;21.27;;;7.70;;
51618;SDS011;38518;53.164;5.430;2023-10-13T10:59:38;19.83;;;7.18;;
51618;SDS011;38518;53.164;5.430;2023-10-13T11:02:04;19.90;;;6.88;;
51618;SDS011;38518;53.164;5.430;2023-10-13T11:04:32;19.63;;;7.10;;
51618;SDS011;38518;53.164;5.430;2023-10-13T11:07:06;19.27;;;8.23;;
51618;SDS011;38518;53.164;5.430;2023-10-13T11:09:34;17.48;;;7.05;;
51618;SDS011;38518;53.164;5.430;2023-10-13T11:14:43;17.90;;;7.28;;
51618;SDS011;38518;53.164;5.430;2023-10-13T11:17:21;23.98;;;6.65;;
51618;SDS011;38518;53.164;5.430;2023-10-13T11:19:54;16.42;;;6.88;;
51618;SDS011;38518;53.164;5.430;2023-10-13T11:22:21;22.00;;;8.10;;
51618;SDS011;38518;53.164;5.430;2023-10-13T11:25:07;25.25;;;8.18;;
51618;SDS011;38518;53.164;5.430;2023-10-13T11:27:36;27.95;;;9.63;;
51618;SDS011;38518;53.164;5.430;2023-10-13T11:30:12;28.60;;;9.23;;
51618;SDS011;38518;53.164;5.430;2023-10-13T11:33:04;35.28;;;10.05;;
51618;SDS011;38518;53.164;5.430;2023-10-13T11:35:31;26.10;;;9.27;;
51618;SDS011;38518;53.164;5.430;2023-10-13T11:40:52;39.72;;;11.82;;
51618;SDS011;38518;53.164;5.430;2023-10-13T11:43:30;48.25;;;12.38;;
51618;SDS011;38518;53.164;5.430;2023-10-13T11:46:09;64.43;;;16.38;;
51618;SDS011;38518;53.164;5.430;2023-10-13T11:48:43;52.63;;;13.70;;
51618;SDS011;38518;53.164;5.430;2023-10-13T11:51:12;56.97;;;14.80;;
51618;SDS011;38518;53.164;5.430;2023-10-13T11:54:05;55.60;;;15.30;;
51618;SDS011;38518;53.164;5.430;2023-10-13T11:56:30;41.55;;;12.70;;
51618;SDS011;38518;53.164;5.430;2023-10-13T11:58:56;42.53;;;13.23;;
51618;SDS011;38518;53.164;5.430;2023-10-13T12:01:26;34.47;;;11.75;;
51618;SDS011;38518;53.164;5.430;2023-10-13T12:04:12;38.75;;;12.18;;
51618;SDS011;38518;53.164;5.430;2023-10-13T12:06:57;29.55;;;11.25;;
51618;SDS011;38518;53.164;5.430;2023-10-13T12:09:42;27.58;;;10.88;;
51618;SDS011;38518;53.164;5.430;2023-10-13T12:12:29;26.50;;;8.65;;
51618;SDS011;38518;53.164;5.430;2023-10-13T12:15:05;24.90;;;10.02;;
51618;SDS011;38518;53.164;5.430;2023-10-13T12:17:35;31.20;;;11.63;;
51618;SDS011;38518;53.164;5.430;2023-10-13T12:20:04;33.83;;;12.07;;
51618;SDS011;38518;53.164;5.430;2023-10-13T12:22:34;48.25;;;15.18;;
51618;SDS011;38518;53.164;5.430;2023-10-13T12:25:01;36.33;;;12.57;;
51618;SDS011;38518;53.164;5.430;2023-10-13T12:27:30;31.52;;;11.52;;
51618;SDS011;38518;53.164;5.430;2023-10-13T12:30:14;30.83;;;13.65;;
51618;SDS011;38518;53.164;5.430;2023-10-13T12:32:48;46.42;;;13.75;;
51618;SDS011;38518;53.164;5.430;2023-10-13T12:35:31;46.92;;;14.07;;
51618;SDS011;38518;53.164;5.430;2023-10-13T12:38:03;51.40;;;14.98;;
51618;SDS011;38518;53.164;5.430;2023-10-13T12:40:41;39.50;;;13.35;;
51618;SDS011;38518;53.164;5.430;2023-10-13T12:43:26;42.72;;;13.57;;
51618;SDS011;38518;53.164;5.430;2023-10-13T12:46:10;31.88;;;10.60;;
51618;SDS011;38518;53.164;5.430;2023-10-13T12:48:54;37.72;;;13.80;;
51618;SDS011;38518;53.164;5.430;2023-10-13T12:51:38;39.80;;;12.88;;
51618;SDS011;38518;53.164;5.430;2023-10-13T12:54:04;42.78;;;13.45;;
51618;SDS011;38518;53.164;5.430;2023-10-13T12:56:31;34.75;;;12.35;;
51618;SDS011;38518;53.164;5.430;2023-10-13T12:58:57;34.15;;;11.65;;
51618;SDS011;38518;53.164;5.430;2023-10-13T13:01:24;36.00;;;11.80;;
51618;SDS011;38518;53.164;5.430;2023-10-13T13:03:54;49.97;;;15.02;;
51618;SDS011;38518;53.164;5.430;2023-10-13T13:06:24;39.67;;;14.32;;
51618;SDS011;38518;53.164;5.430;2023-10-13T13:08:54;32.55;;;11.55;;
51618;SDS011;38518;53.164;5.430;2023-10-13T13:11:23;36.65;;;13.18;;
51618;SDS011;38518;53.164;5.430;2023-10-13T13:13:50;40.55;;;14.63;;
51618;SDS011;38518;53.164;5.430;2023-10-13T13:16:16;36.03;;;14.65;;
51618;SDS011;38518;53.164;5.430;2023-10-13T13:18:49;35.92;;;13.60;;
51618;SDS011;38518;53.164;5.430;2023-10-13T13:21:20;35.80;;;13.25;;
51618;SDS011;38518;53.164;5.430;2023-10-13T13:23:49;32.08;;;12.35;;
51618;SDS011;38518;53.164;5.430;2023-10-13T13:26:16;37.25;;;13.43;;
51618;SDS011;38518;53.164;5.430;2023-10-13T13:28:46;33.92;;;12.73;;
51618;SDS011;38518;53.164;5.430;2023-10-13T13:31:16;40.08;;;14.68;;
51618;SDS011;38518;53.164;5.430;2023-10-13T13:33:42;40.47;;;13.70;;
51618;SDS011;38518;53.164;5.430;2023-10-13T13:36:09;41.17;;;13.00;;
51618;SDS011;38518;53.164;5.430;2023-10-13T13:38:40;49.25;;;14.55;;
51618;SDS011;38518;53.164;5.430;2023-10-13T13:41:13;34.20;;;13.57;;
51618;SDS011;38518;53.164;5.430;2023-10-13T13:43:45;46.40;;;14.43;;
51618;SDS011;38518;53.164;5.430;2023-10-13T13:46:18;42.10;;;13.50;;
51618;SDS011;38518;53.164;5.430;2023-10-13T13:48:44;33.88;;;12.02;;
51618;SDS011;38518;53.164;5.430;2023-10-13T13:51:13;36.80;;;13.40;;
51618;SDS011;38518;53.164;5.430;2023-10-13T13:53:51;34.63;;;12.43;;
51618;SDS011;38518;53.164;5.430;2023-10-13T13:56:18;42.45;;;14.77;;
51618;SDS011;38518;53.164;5.430;2023-10-13T13:58:44;39.28;;;12.80;;
51618;SDS011;38518;53.164;5.430;2023-10-13T14:01:15;42.50;;;14.02;;
51618;SDS011;38518;53.164;5.430;2023-10-13T14:03:44;40.08;;;13.93;;
51618;SDS011;38518;53.164;5.430;2023-10-13T14:06:11;42.67;;;14.38;;
51618;SDS011;38518;53.164;5.430;2023-10-13T14:08:48;43.20;;;13.90;;
51618;SDS011;38518;53.164;5.430;2023-10-13T14:11:17;42.03;;;14.02;;
51618;SDS011;38518;53.164;5.430;2023-10-13T14:14:16;37.97;;;13.32;;
51618;SDS011;38518;53.164;5.430;2023-10-13T14:16:51;34.92;;;12.13;;
51618;SDS011;38518;53.164;5.430;2023-10-13T14:19:18;30.58;;;12.10;;
51618;SDS011;38518;53.164;5.430;2023-10-13T14:21:57;30.88;;;12.13;;
51618;SDS011;38518;53.164;5.430;2023-10-13T14:24:23;37.10;;;11.75;;
51618;SDS011;38518;53.164;5.430;2023-10-13T14:26:57;29.27;;;10.98;;
51618;SDS011;38518;53.164;5.430;2023-10-13T14:29:42;33.55;;;12.55;;
51618;SDS011;38518;53.164;5.430;2023-10-13T14:32:09;36.92;;;11.93;;
51618;SDS011;38518;53.164;5.430;2023-10-13T14:34:42;38.55;;;12.30;;
51618;SDS011;38518;53.164;5.430;2023-10-13T14:37:09;37.70;;;12.95;;
51618;SDS011;38518;53.164;5.430;2023-10-13T14:39:39;36.53;;;12.25;;
51618;SDS011;38518;53.164;5.430;2023-10-13T14:42:07;33.28;;;10.77;;
51618;SDS011;38518;53.164;5.430;2023-10-13T14:44:33;41.08;;;12.85;;
51618;SDS011;38518;53.164;5.430;2023-10-13T14:47:00;35.20;;;11.90;;
51618;SDS011;38518;53.164;5.430;2023-10-13T14:49:27;36.03;;;12.25;;
51618;SDS011;38518;53.164;5.430;2023-10-13T14:51:53;41.30;;;13.70;;
51618;SDS011;38518;53.164;5.430;2023-10-13T14:54:20;49.85;;;13.77;;
51618;SDS011;38518;53.164;5.430;2023-10-13T14:57:01;33.42;;;11.85;;
51618;SDS011;38518;53.164;5.430;2023-10-13T14:59:27;38.05;;;12.63;;
51618;SDS011;38518;53.164;5.430;2023-10-13T15:01:58;37.97;;;12.20;;
51618;SDS011;38518;53.164;5.430;2023-10-13T15:04:26;34.42;;;13.18;;
51618;SDS011;38518;53.164;5.430;2023-10-13T15:06:53;38.00;;;12.52;;
51618;SDS011;38518;53.164;5.430;2023-10-13T15:09:20;39.45;;;12.20;;
51618;SDS011;38518;53.164;5.430;2023-10-13T15:11:49;41.25;;;13.57;;
51618;SDS011;38518;53.164;5.430;2023-10-13T15:14:18;40.95;;;12.18;;
51618;SDS011;38518;53.164;5.430;2023-10-13T15:16:46;43.78;;;12.68;;
51618;SDS011;38518;53.164;5.430;2023-10-13T15:19:11;35.30;;;12.75;;
51618;SDS011;38518;53.164;5.430;2023-10-13T15:21:37;43.80;;;13.15;;